createdAt,value
2019-04-16T00:00:55.703Z,27.80
2019-04-16T00:03:23.102Z,28.60
2019-04-16T00:06:04.592Z,28.70
2019-04-16T00:08:32.971Z,27.80
2019-04-16T00:11:04.266Z,28.80
2019-04-16T00:13:38.171Z,29.00
2019-04-16T00:16:12.763Z,29.90
2019-04-16T00:18:36.678Z,29.20
2019-04-16T00:21:11.111Z,29.10
2019-04-16T00:23:56.418Z,29.50
2019-04-16T00:26:26.469Z,29.20
2019-04-16T00:28:51.233Z,28.40
2019-04-16T00:31:17.779Z,29.90
2019-04-16T00:33:44.280Z,29.40
2019-04-16T00:36:10.714Z,29.30
2019-04-16T00:38:41.061Z,29.60
2019-04-16T00:41:05.819Z,30.10
2019-04-16T00:43:32.650Z,28.50
2019-04-16T00:45:59.199Z,29.60
2019-04-16T00:48:25.679Z,29.70
2019-04-16T00:50:52.136Z,28.90
2019-04-16T00:53:18.715Z,30.10
2019-04-16T00:55:45.836Z,29.10
2019-04-16T00:58:12.434Z,29.10
2019-04-16T01:00:39.187Z,30.40
2019-04-16T01:03:07.250Z,30.30
2019-04-16T01:05:35.239Z,30.00
2019-04-16T01:08:02.197Z,29.90
2019-04-16T01:10:28.668Z,30.20
2019-04-16T01:12:55.115Z,30.20
2019-04-16T01:15:21.791Z,30.50
2019-04-16T01:17:48.167Z,30.60
2019-04-16T01:20:15.099Z,30.50
2019-04-16T01:22:46.572Z,30.20
2019-04-16T01:25:10.432Z,30.30
2019-04-16T01:27:38.811Z,30.00
2019-04-16T01:30:07.020Z,30.30
2019-04-16T01:32:35.384Z,30.60
2019-04-16T01:35:10.360Z,29.80
2019-04-16T01:37:56.762Z,30.90
2019-04-16T01:40:25.317Z,30.70
2019-04-16T01:42:54.390Z,31.00
2019-04-16T01:45:20.357Z,31.30
2019-04-16T01:47:46.811Z,30.80
2019-04-16T01:50:14.079Z,30.60
2019-04-16T01:52:41.025Z,30.70
2019-04-16T01:55:08.930Z,30.40
2019-04-16T01:57:35.347Z,31.00
2019-04-16T02:00:06.834Z,31.40
2019-04-16T02:02:30.487Z,31.40
2019-04-16T02:04:57.045Z,31.90
2019-04-16T02:07:27.757Z,31.90
2019-04-16T02:09:52.775Z,32.20
2019-04-16T02:12:19.443Z,31.70
2019-04-16T02:14:47.366Z,31.80
2019-04-16T02:17:14.069Z,31.70
2019-04-16T02:19:40.612Z,32.10
2019-04-16T02:22:07.442Z,30.70
2019-04-16T02:24:33.917Z,33.00
2019-04-16T02:27:00.380Z,32.80
2019-04-16T02:29:29.677Z,32.10
2019-04-16T02:31:55.242Z,33.00
2019-04-16T02:34:21.723Z,32.40
2019-04-16T02:36:48.273Z,32.20
2019-04-16T02:39:14.745Z,32.80
2019-04-16T02:41:41.302Z,32.70
2019-04-16T02:44:14.009Z,32.90
2019-04-16T02:46:36.128Z,33.40
2019-04-16T02:49:03.023Z,34.10
2019-04-16T02:51:41.313Z,33.00
2019-04-16T02:54:16.668Z,32.80
2019-04-16T02:56:51.708Z,34.20
2019-04-16T02:59:33.852Z,34.20
2019-04-16T03:02:02.702Z,33.90
2019-04-16T03:04:46.199Z,33.70
2019-04-16T03:07:13.287Z,35.40
2019-04-16T03:09:40.917Z,35.80
2019-04-16T03:12:07.611Z,35.80
2019-04-16T03:14:34.360Z,35.20
2019-04-16T03:17:15.301Z,35.40
2019-04-16T03:19:43.757Z,35.80
2019-04-16T03:22:10.308Z,35.40
2019-04-16T03:24:37.544Z,36.00
2019-04-16T03:27:05.561Z,36.30
2019-04-16T03:29:32.319Z,36.40
2019-04-16T03:31:59.733Z,36.50
2019-04-16T03:34:26.398Z,36.50
2019-04-16T03:36:52.953Z,36.50
2019-04-16T03:39:19.430Z,37.00
2019-04-16T03:41:46.400Z,37.30
2019-04-16T03:44:12.968Z,37.60
2019-04-16T03:46:40.140Z,37.90
2019-04-16T03:49:06.876Z,38.00
2019-04-16T03:51:35.419Z,37.90
2019-04-16T03:54:04.760Z,38.20
2019-04-16T03:56:30.490Z,38.50
2019-04-16T03:58:57.738Z,38.60
2019-04-16T04:01:24.184Z,38.60
2019-04-16T04:03:50.546Z,38.80
2019-04-16T04:06:17.388Z,39.10
2019-04-16T04:08:47.916Z,39.00
2019-04-16T04:11:12.097Z,39.80
2019-04-16T04:13:38.543Z,40.80
2019-04-16T04:16:05.117Z,39.00
2019-04-16T04:18:31.651Z,40.00
2019-04-16T04:20:58.129Z,40.70
2019-04-16T04:23:25.555Z,41.00
2019-04-16T04:25:52.952Z,41.10
2019-04-16T04:28:20.516Z,41.20
2019-04-16T04:30:49.013Z,41.40
2019-04-16T04:33:34.311Z,41.40
2019-04-16T04:36:00.804Z,41.10
2019-04-16T04:38:27.253Z,41.30
2019-04-16T04:40:53.705Z,41.50
2019-04-16T04:43:20.317Z,41.80
2019-04-16T04:45:46.736Z,41.20
2019-04-16T04:48:13.417Z,42.20
2019-04-16T04:50:39.973Z,42.50
2019-04-16T04:53:06.545Z,41.90
2019-04-16T04:55:33.101Z,40.80
2019-04-16T04:58:02.482Z,41.30
2019-04-16T05:00:27.940Z,41.20
2019-04-16T05:02:54.526Z,39.90
2019-04-16T05:05:28.844Z,40.70
2019-04-16T05:07:59.725Z,40.00
2019-04-16T05:10:24.092Z,41.40
2019-04-16T05:12:53.545Z,40.00
2019-04-16T05:15:19.040Z,41.20
2019-04-16T05:17:45.497Z,39.50
2019-04-16T05:20:14.910Z,40.30
2019-04-16T05:22:40.603Z,39.90
2019-04-16T05:25:07.224Z,38.90
2019-04-16T05:27:33.707Z,39.70
2019-04-16T05:30:00.276Z,39.70
2019-04-16T05:32:32.897Z,38.60
2019-04-16T05:34:55.104Z,40.20
2019-04-16T05:37:21.761Z,40.20
2019-04-16T05:39:48.555Z,40.50
2019-04-16T05:42:15.205Z,40.30
2019-04-16T05:44:41.679Z,40.10
2019-04-16T05:47:08.128Z,39.80
2019-04-16T05:49:34.577Z,39.70
2019-04-16T05:52:03.747Z,38.30
2019-04-16T05:54:31.408Z,39.00
2019-04-16T05:56:59.779Z,37.80
2019-04-16T05:59:26.255Z,39.30
2019-04-16T06:02:03.811Z,37.70
2019-04-16T06:04:30.372Z,38.00
2019-04-16T06:06:56.739Z,37.50
2019-04-16T06:09:23.264Z,36.80
2019-04-16T06:11:49.648Z,37.60
2019-04-16T06:14:33.076Z,36.70
2019-04-16T06:17:07.233Z,37.00
2019-04-16T06:19:46.825Z,37.10
2019-04-16T06:22:20.688Z,37.30
2019-04-16T06:25:09.743Z,37.20
2019-04-16T06:27:53.000Z,36.40
2019-04-16T06:30:33.863Z,37.10
2019-04-16T06:33:03.443Z,35.70
2019-04-16T06:35:47.524Z,34.20
2019-04-16T06:38:15.911Z,34.20
2019-04-16T06:40:44.270Z,35.10
2019-04-16T06:43:25.232Z,34.90
2019-04-16T06:45:51.719Z,34.80
2019-04-16T06:48:22.983Z,34.50
2019-04-16T06:50:54.453Z,33.00
2019-04-16T06:53:23.821Z,33.70
2019-04-16T06:55:53.186Z,33.90
2019-04-16T06:58:27.504Z,33.70
2019-04-16T07:01:12.371Z,33.80
2019-04-16T07:03:46.743Z,32.10
2019-04-16T07:06:20.778Z,32.20
2019-04-16T07:08:50.061Z,32.20
2019-04-16T07:11:18.912Z,30.90
2019-04-16T07:13:45.492Z,31.60
2019-04-16T07:16:12.071Z,31.10
2019-04-16T07:18:39.272Z,31.60
2019-04-16T07:21:05.813Z,30.50
2019-04-16T07:23:32.652Z,30.70
2019-04-16T07:26:03.061Z,30.50
2019-04-16T07:28:29.726Z,29.00
2019-04-16T07:31:31.773Z,29.70
2019-04-16T07:33:51.402Z,29.40
2019-04-16T07:36:19.785Z,28.70
2019-04-16T07:38:48.137Z,27.60
2019-04-16T07:41:17.183Z,26.50
2019-04-16T07:44:07.834Z,27.60
2019-04-16T07:46:39.403Z,27.30
2019-04-16T07:49:26.371Z,27.20
2019-04-16T07:51:54.645Z,26.30
2019-04-16T07:54:28.801Z,25.30
2019-04-16T07:56:55.554Z,25.40
2019-04-16T07:59:22.123Z,25.00
2019-04-16T08:01:48.851Z,25.30
2019-04-16T08:04:25.509Z,24.50
2019-04-16T08:06:47.195Z,24.50
2019-04-16T08:09:12.202Z,23.50
2019-04-16T08:11:38.667Z,23.90
2019-04-16T08:14:08.630Z,23.90
2019-04-16T08:16:46.581Z,22.80
2019-04-16T08:19:01.690Z,22.50
2019-04-16T08:21:28.356Z,21.80
2019-04-16T08:24:11.799Z,21.80
2019-04-16T08:26:38.257Z,21.50
2019-04-16T08:29:05.039Z,20.80
2019-04-16T08:31:33.602Z,19.30
2019-04-16T08:34:00.503Z,19.20
2019-04-16T08:36:27.171Z,18.60
2019-04-16T08:38:53.631Z,17.80
2019-04-16T08:41:21.570Z,16.40
2019-04-16T08:43:48.248Z,16.20
2019-04-16T08:46:14.613Z,16.00
2019-04-16T08:48:41.158Z,16.80
2019-04-16T08:51:07.747Z,17.10
2019-04-16T08:53:35.771Z,16.50
2019-04-16T08:56:02.470Z,16.10
2019-04-16T08:58:29.020Z,16.60
2019-04-16T09:00:55.997Z,15.30
2019-04-16T09:03:22.445Z,14.50
2019-04-16T09:05:49.285Z,14.20
2019-04-16T09:08:21.803Z,13.10
2019-04-16T09:10:46.467Z,12.80
2019-04-16T09:13:17.920Z,13.70
2019-04-16T09:15:44.517Z,13.70
2019-04-16T09:18:12.870Z,12.90
2019-04-16T09:20:40.448Z,12.00
2019-04-16T09:23:06.895Z,13.10
2019-04-16T09:25:35.380Z,13.00
2019-04-16T09:28:07.670Z,12.80
2019-04-16T09:30:52.632Z,12.50
2019-04-16T09:33:20.884Z,12.20
2019-04-16T09:35:52.471Z,14.30
2019-04-16T09:38:20.948Z,13.40
2019-04-16T09:41:06.293Z,12.50
2019-04-16T09:43:40.652Z,11.10
2019-04-16T09:46:10.973Z,11.80
2019-04-16T09:48:35.689Z,10.50
2019-04-16T09:51:02.236Z,9.70
2019-04-16T09:53:33.921Z,10.50
2019-04-16T09:55:59.295Z,11.20
2019-04-16T09:58:25.971Z,10.20
2019-04-16T10:01:09.576Z,10.10
2019-04-16T10:03:40.659Z,11.50
2019-04-16T10:06:07.251Z,10.60
2019-04-16T10:08:33.830Z,10.80
2019-04-16T10:11:02.749Z,10.50
2019-04-16T10:13:32.853Z,10.60
2019-04-16T10:15:57.109Z,9.10
2019-04-16T10:18:23.726Z,8.90
2019-04-16T10:20:50.277Z,8.20
2019-04-16T10:23:18.615Z,8.40
2019-04-16T10:25:45.656Z,7.40
2019-04-16T10:28:17.057Z,7.00
2019-04-16T10:30:45.642Z,7.00
2019-04-16T10:33:12.631Z,7.70
2019-04-16T10:35:39.313Z,8.40
2019-04-16T10:38:07.705Z,8.80
2019-04-16T10:40:41.892Z,8.50
2019-04-16T10:43:13.264Z,10.30
2019-04-16T10:45:47.769Z,10.20
2019-04-16T10:48:16.130Z,9.90
2019-04-16T10:51:00.172Z,10.00
2019-04-16T10:53:28.599Z,9.90
2019-04-16T10:58:58.932Z,9.70
2019-04-16T11:01:36.673Z,9.40
2019-04-16T11:04:21.927Z,9.70
2019-04-16T11:06:50.716Z,10.70
2019-04-16T11:09:17.123Z,10.70
2019-04-16T11:11:43.727Z,9.90
2019-04-16T11:14:10.277Z,11.40
2019-04-16T11:16:38.795Z,10.00
2019-04-16T11:19:05.377Z,8.70
2019-04-16T11:21:31.811Z,9.70
2019-04-16T11:23:58.277Z,9.40
2019-04-16T11:26:25.028Z,9.30
2019-04-16T11:28:52.036Z,9.20
2019-04-16T11:31:20.375Z,10.10
2019-04-16T11:33:46.879Z,9.50
2019-04-16T11:36:19.429Z,10.40
2019-04-16T11:38:42.097Z,10.70
2019-04-16T11:41:08.753Z,10.50
2019-04-16T11:43:38.137Z,10.80
2019-04-16T11:46:07.220Z,11.30
2019-04-16T11:48:37.296Z,12.70
2019-04-16T11:51:02.886Z,11.30
2019-04-16T11:53:32.286Z,10.60
2019-04-16T11:55:59.132Z,9.10
2019-04-16T11:58:27.557Z,10.00
2019-04-16T12:00:56.040Z,10.00
2019-04-16T12:03:27.228Z,9.80
2019-04-16T12:06:01.490Z,10.70
2019-04-16T12:08:30.540Z,11.60
2019-04-16T12:13:42.263Z,12.00
2019-04-16T12:16:27.744Z,11.40
2019-04-16T12:19:08.396Z,11.00
2019-04-16T12:21:53.509Z,10.40
2019-04-16T12:24:22.161Z,11.70
2019-04-16T12:26:50.765Z,11.60
2019-04-16T12:29:19.142Z,11.40
2019-04-16T12:32:04.293Z,10.50
2019-04-16T12:34:51.629Z,11.10
2019-04-16T12:37:20.025Z,11.00
2019-04-16T12:40:00.831Z,11.80
2019-04-16T12:42:46.035Z,12.10
2019-04-16T12:45:29.711Z,12.10
2019-04-16T12:47:59.126Z,12.10
2019-04-16T12:50:27.693Z,11.50
2019-04-16T12:52:58.878Z,11.80
2019-04-16T12:55:31.452Z,12.90
2019-04-16T12:58:03.882Z,13.30
2019-04-16T13:00:32.396Z,12.90
2019-04-16T13:03:17.552Z,13.10
2019-04-16T13:05:50.979Z,13.30
2019-04-16T13:08:28.681Z,12.50
2019-04-16T13:11:00.608Z,12.30
2019-04-16T13:13:45.616Z,13.10
2019-04-16T13:16:17.086Z,12.70
2019-04-16T13:18:45.571Z,13.20
2019-04-16T13:21:20.058Z,13.20
2019-04-16T13:23:53.967Z,13.30
2019-04-16T13:26:28.604Z,13.40
2019-04-16T13:28:56.591Z,13.60
2019-04-16T13:31:23.184Z,13.70
2019-04-16T13:33:50.925Z,13.40
2019-04-16T13:36:17.636Z,13.60
2019-04-16T13:38:54.925Z,13.80
2019-04-16T13:41:26.263Z,12.70
2019-04-16T13:43:51.871Z,13.80
2019-04-16T13:46:18.336Z,13.70
2019-04-16T13:48:46.834Z,13.60
2019-04-16T13:51:18.830Z,14.10
2019-04-16T13:53:48.376Z,15.00
2019-04-16T13:56:23.165Z,15.70
2019-04-16T13:59:00.872Z,15.50
2019-04-16T14:01:32.727Z,15.40
2019-04-16T14:03:59.526Z,15.80
2019-04-16T14:06:26.276Z,15.70
2019-04-16T14:08:52.776Z,15.30
2019-04-16T14:11:20.506Z,14.70
2019-04-16T14:13:50.084Z,15.00
2019-04-16T14:16:16.037Z,14.70
2019-04-16T14:18:42.517Z,15.80
2019-04-16T14:21:09.169Z,15.90
2019-04-16T14:23:35.962Z,15.30
2019-04-16T14:26:02.745Z,14.90
2019-04-16T14:28:34.220Z,15.70
2019-04-16T14:30:57.799Z,16.10
2019-04-16T14:33:26.273Z,16.10
2019-04-16T14:35:52.933Z,15.60
2019-04-16T14:38:21.319Z,16.50
2019-04-16T14:40:47.757Z,17.40
2019-04-16T14:43:16.635Z,17.50
2019-04-16T14:45:58.297Z,17.20
2019-04-16T14:48:16.415Z,16.80
2019-04-16T14:50:42.876Z,16.70
2019-04-16T14:53:09.648Z,16.20
2019-04-16T14:55:41.938Z,16.50
2019-04-16T14:58:20.988Z,17.40
2019-04-16T15:01:06.518Z,17.50
2019-04-16T15:03:34.982Z,18.00
2019-04-16T15:06:03.892Z,18.90
2019-04-16T15:08:32.344Z,19.30
2019-04-16T15:11:19.159Z,19.50
2019-04-16T15:13:50.541Z,20.10
2019-04-16T15:16:24.716Z,20.20
2019-04-16T15:19:11.345Z,20.30
2019-04-16T15:22:16.804Z,20.20
2019-04-16T15:24:47.997Z,20.90
2019-04-16T15:27:16.487Z,21.10
2019-04-16T15:29:44.870Z,21.40
2019-04-16T15:32:22.207Z,21.80
2019-04-16T15:34:50.559Z,21.60
2019-04-16T15:37:22.661Z,21.60
2019-04-16T15:39:50.018Z,21.70
2019-04-16T15:42:35.685Z,21.70
2019-04-16T15:45:08.461Z,22.40
2019-04-16T15:47:42.919Z,23.20
2019-04-16T15:50:14.491Z,25.10
2019-04-16T15:52:54.972Z,26.50
2019-04-16T15:55:26.428Z,27.40
2019-04-16T15:57:55.077Z,27.80
2019-04-16T16:00:26.324Z,28.70
2019-04-16T16:02:55.077Z,29.20
2019-04-16T16:05:40.076Z,29.60
2019-04-16T16:08:20.614Z,30.50
2019-04-16T16:13:56.643Z,31.40
2019-04-16T16:16:21.738Z,32.30
2019-04-16T16:18:48.249Z,32.50
2019-04-16T16:21:14.802Z,33.10
2019-04-16T16:23:41.725Z,33.40
2019-04-16T16:26:08.372Z,34.30
2019-04-16T16:28:50.519Z,34.60
2019-04-16T16:31:19.134Z,34.80
2019-04-16T16:33:45.762Z,34.80
2019-04-16T16:36:12.312Z,34.70
2019-04-16T16:38:38.775Z,34.90
2019-04-16T16:41:05.364Z,35.90
2019-04-16T16:43:51.880Z,35.70
2019-04-16T16:46:37.264Z,34.90
2019-04-16T16:49:03.942Z,33.80
2019-04-16T16:51:30.413Z,34.90
2019-04-16T16:54:01.810Z,36.60
2019-04-16T16:56:45.403Z,36.80
2019-04-16T16:59:30.361Z,36.20
2019-04-16T17:02:14.061Z,36.50
2019-04-16T17:04:48.460Z,37.10
2019-04-16T17:07:17.696Z,37.30
2019-04-16T17:09:43.633Z,37.80
2019-04-16T17:12:10.511Z,38.50
2019-04-16T17:14:37.961Z,39.30
2019-04-16T17:17:13.166Z,39.70
2019-04-16T17:19:53.021Z,40.60
2019-04-16T17:22:19.578Z,40.70
2019-04-16T17:24:46.058Z,41.40
2019-04-16T17:27:12.732Z,43.20
2019-04-16T17:29:39.733Z,43.00
2019-04-16T17:32:06.528Z,42.70
2019-04-16T17:34:33.091Z,42.30
2019-04-16T17:36:59.902Z,43.50
2019-04-16T17:39:28.518Z,43.90
2019-04-16T17:42:03.974Z,45.00
2019-04-16T17:44:46.639Z,44.80
2019-04-16T17:47:30.802Z,44.50
2019-04-16T17:49:45.398Z,45.10
2019-04-16T17:52:16.748Z,46.60
2019-04-16T17:54:47.859Z,47.80
2019-04-16T17:57:42.826Z,47.60
2019-04-16T18:00:27.887Z,47.30
2019-04-16T18:03:13.251Z,49.20
2019-04-16T18:05:50.927Z,49.50
2019-04-16T18:08:34.973Z,51.80
2019-04-16T18:11:06.130Z,50.90
2019-04-16T18:13:49.125Z,51.30
2019-04-16T18:16:20.703Z,51.50
2019-04-16T18:18:52.220Z,51.00
2019-04-16T18:21:37.620Z,51.50
2019-04-16T18:24:15.440Z,51.50
2019-04-16T18:26:49.739Z,52.80
2019-04-16T18:29:24.036Z,51.30
2019-04-16T18:32:05.005Z,50.90
2019-04-16T18:34:45.493Z,50.70
2019-04-16T18:37:30.660Z,50.10
2019-04-16T18:39:58.928Z,51.00
2019-04-16T18:42:44.417Z,50.00
2019-04-16T18:45:31.233Z,50.40
2019-04-16T18:48:04.698Z,50.50
2019-04-16T18:50:28.787Z,51.10
2019-04-16T18:52:55.388Z,51.80
2019-04-16T18:55:21.931Z,52.40
2019-04-16T18:57:48.769Z,52.80
2019-04-16T19:00:34.100Z,53.30
2019-04-16T19:03:00.782Z,52.70
2019-04-16T19:05:27.560Z,55.10
2019-04-16T19:07:55.842Z,54.70
2019-04-16T19:10:22.504Z,53.90
2019-04-16T19:12:49.133Z,53.80
2019-04-16T19:15:15.837Z,53.70
2019-04-16T19:17:42.615Z,54.10
2019-04-16T19:20:09.267Z,55.10
2019-04-16T19:22:35.628Z,55.30
2019-04-16T19:25:03.661Z,54.20
2019-04-16T19:27:30.743Z,54.90
2019-04-16T19:29:58.443Z,56.50
2019-04-16T19:32:27.776Z,57.40
2019-04-16T19:35:07.876Z,56.80
2019-04-16T19:37:21.728Z,57.50
2019-04-16T19:39:48.207Z,57.50
2019-04-16T19:42:14.741Z,58.20
2019-04-16T19:44:41.212Z,56.00
2019-04-16T19:47:07.786Z,57.30
2019-04-16T19:49:34.551Z,57.20
2019-04-16T19:52:01.118Z,58.50
2019-04-16T19:54:31.415Z,58.70
2019-04-16T19:56:55.890Z,60.10
2019-04-16T19:59:22.645Z,60.30
2019-04-16T20:01:49.251Z,60.50
2019-04-16T20:04:15.612Z,62.90
2019-04-16T20:06:42.097Z,63.80
2019-04-16T20:09:08.674Z,63.10
2019-04-16T20:11:35.168Z,64.60
2019-04-16T20:14:03.081Z,64.30
2019-04-16T20:16:30.138Z,63.80
2019-04-16T20:18:56.602Z,65.20
2019-04-16T20:21:23.086Z,64.00
2019-04-16T20:23:49.564Z,65.50
2019-04-16T20:26:16.019Z,65.90
2019-04-16T20:28:45.426Z,65.60
2019-04-16T20:31:11.084Z,66.60
2019-04-16T20:33:37.640Z,66.70
2019-04-16T20:36:04.347Z,66.30
2019-04-16T20:38:30.908Z,67.10
2019-04-16T20:41:18.988Z,66.80
2019-04-16T20:43:45.704Z,66.80
2019-04-16T20:46:12.268Z,67.60
2019-04-16T20:48:38.991Z,68.40
2019-04-16T20:51:07.316Z,68.30
2019-04-16T20:53:33.791Z,69.00
2019-04-16T20:56:00.552Z,69.30
2019-04-16T20:58:30.706Z,70.50
2019-04-16T21:00:57.507Z,70.10
2019-04-16T21:03:23.904Z,71.20
2019-04-16T21:05:57.804Z,71.40
2019-04-16T21:08:24.382Z,71.50
2019-04-16T21:10:46.916Z,71.60
2019-04-16T21:13:16.300Z,72.40
2019-04-16T21:15:42.315Z,74.50
2019-04-16T21:18:11.895Z,74.30
2019-04-16T21:20:37.372Z,74.20
2019-04-16T21:23:04.088Z,75.20
2019-04-16T21:25:30.652Z,74.80
2019-04-16T21:27:59.022Z,75.60
2019-04-16T21:30:25.499Z,75.50
2019-04-16T21:35:47.940Z,73.10
2019-04-16T21:38:28.658Z,73.10
2019-04-16T21:40:56.232Z,72.30
2019-04-16T21:43:23.396Z,70.70
2019-04-16T21:45:49.876Z,70.20
2019-04-16T21:48:16.436Z,70.40
2019-04-16T21:50:44.587Z,69.30
2019-04-16T21:53:31.115Z,68.00
2019-04-16T21:55:57.604Z,68.50
2019-04-16T21:58:24.157Z,67.50
2019-04-16T22:00:53.143Z,68.70
2019-04-16T22:03:21.708Z,68.80
2019-04-16T22:05:48.994Z,69.00
2019-04-16T22:08:15.462Z,69.10
2019-04-16T22:10:41.915Z,70.00
2019-04-16T22:13:08.586Z,69.40
2019-04-16T22:15:35.097Z,70.10
2019-04-16T22:18:07.404Z,69.80
2019-04-16T22:20:31.838Z,70.60
2019-04-16T22:22:58.875Z,69.90
2019-04-16T22:25:26.864Z,71.60
2019-04-16T22:27:53.987Z,71.80
2019-04-16T22:30:20.571Z,72.40
2019-04-16T22:32:47.023Z,72.60
2019-04-16T22:35:13.496Z,72.70
2019-04-16T22:37:39.967Z,74.60
2019-04-16T22:40:22.550Z,73.30
2019-04-16T22:43:07.035Z,73.00
2019-04-16T22:45:34.779Z,73.50
2019-04-16T22:48:01.601Z,75.00
2019-04-16T22:50:47.831Z,73.90
2019-04-16T22:53:16.963Z,71.20
2019-04-16T22:55:42.819Z,70.70
2019-04-16T22:58:11.241Z,70.90
2019-04-16T23:00:44.091Z,72.20
2019-04-16T23:03:07.992Z,69.30
2019-04-16T23:05:34.464Z,72.10
2019-04-16T23:08:01.040Z,73.70
2019-04-16T23:10:27.968Z,73.00
2019-04-16T23:12:59.546Z,72.70
2019-04-16T23:15:24.216Z,72.00
2019-04-16T23:17:50.834Z,72.80
2019-04-16T23:20:29.297Z,73.70
2019-04-16T23:22:46.492Z,73.90
2019-04-16T23:25:14.080Z,74.20
2019-04-16T23:27:40.734Z,73.90
2019-04-16T23:30:07.311Z,74.50
2019-04-16T23:32:34.062Z,74.20
2019-04-16T23:35:00.637Z,74.00
2019-04-16T23:37:27.008Z,74.10
2019-04-16T23:39:53.509Z,74.10
2019-04-16T23:42:20.103Z,73.80
2019-04-16T23:44:51.463Z,75.80
2019-04-16T23:47:32.117Z,76.20
2019-04-16T23:50:03.635Z,76.30
2019-04-16T23:52:35.516Z,75.70
2019-04-16T23:55:06.847Z,76.80
2019-04-16T23:57:36.025Z,77.30
